Time,TemperatureF,DewpointF,PressureIn,WindDirection,WindDirectionDegrees,WindSpeedMPH,WindSpeedGustMPH,Humidity,HourlyPrecipIn,Conditions,Clouds,dailyrainin,SoftwareType,DateUTC
2013-07-08 00:02:00,77.0,73.0,30.13,NE,51,4.0,6.0,88,-99.99,,,-99.99,,2013-07-08 04:02:00,
2013-07-08 00:12:00,77.0,73.0,30.13,ENE,57,5.0,6.0,88,-99.99,,,-99.99,,2013-07-08 04:12:00,
2013-07-08 00:22:00,77.0,73.0,30.13,ENE,57,5.0,6.0,88,-99.99,,,-99.99,,2013-07-08 04:22:00,
2013-07-08 00:42:00,76.0,73.0,30.12,ENE,64,4.0,6.0,88,-99.99,,,-99.99,,2013-07-08 04:42:00,
2013-07-08 00:53:00,76.0,73.0,30.12,East,79,3.0,4.0,90,-99.99,,,-99.99,,2013-07-08 04:53:00,
2013-07-08 01:01:00,76.0,73.0,30.12,East,79,3.0,4.0,90,-99.99,,,-99.99,,2013-07-08 05:01:00,
2013-07-08 01:12:00,75.0,72.0,30.12,SE,145,2.0,3.0,90,-99.99,,,-99.99,,2013-07-08 05:12:00,
2013-07-08 01:22:00,75.0,72.0,30.12,SE,145,2.0,3.0,90,-99.99,,,-99.99,,2013-07-08 05:22:00,
2013-07-08 01:33:00,75.0,72.0,30.12,SE,145,2.0,3.0,90,-99.99,,,-99.99,,2013-07-08 05:33:00,
2013-07-08 01:43:00,74.0,71.0,30.12,East,92,1.0,2.0,90,-99.99,,,-99.99,,2013-07-08 05:43:00,
2013-07-08 01:53:00,74.0,71.0,30.12,East,92,1.0,2.0,90,-99.99,,,-99.99,,2013-07-08 05:53:00,
2013-07-08 02:01:00,75.0,73.0,30.13,NE,49,2.0,4.0,91,-99.99,,,-99.99,,2013-07-08 06:01:00,
2013-07-08 02:12:00,75.0,73.0,30.12,NE,53,3.0,3.0,91,-99.99,,,-99.99,,2013-07-08 06:12:00,
2013-07-08 02:22:00,75.0,73.0,30.12,NE,53,3.0,3.0,91,-99.99,,,-99.99,,2013-07-08 06:22:00,
2013-07-08 02:34:00,75.0,73.0,30.12,NE,53,3.0,3.0,91,-99.99,,,-99.99,,2013-07-08 06:34:00,
2013-07-08 02:43:00,75.0,73.0,30.12,NE,45,4.0,5.0,92,-99.99,,,-99.99,,2013-07-08 06:43:00,
2013-07-08 02:53:00,75.0,73.0,30.11,ENE,62,4.0,6.0,92,-99.99,,,-99.99,,2013-07-08 06:53:00,
2013-07-08 03:02:00,75.0,73.0,30.11,ENE,62,4.0,6.0,92,-99.99,,,-99.99,,2013-07-08 07:02:00,
2013-07-08 03:12:00,74.0,71.0,30.10,East,89,3.0,4.0,92,-99.99,,,-99.99,,2013-07-08 07:12:00,
2013-07-08 03:22:00,74.0,71.0,30.10,East,89,3.0,4.0,92,-99.99,,,-99.99,,2013-07-08 07:22:00,
2013-07-08 03:34:00,74.0,71.0,30.10,East,89,3.0,4.0,92,-99.99,,,-99.99,,2013-07-08 07:34:00,
2013-07-08 03:44:00,74.0,72.0,30.10,East,95,2.0,3.0,93,-99.99,,,-99.99,,2013-07-08 07:44:00,
2013-07-08 03:53:00,74.0,72.0,30.09,East,90,2.0,4.0,93,-99.99,,,-99.99,,2013-07-08 07:53:00,
2013-07-08 04:02:00,74.0,72.0,30.09,East,90,2.0,4.0,93,-99.99,,,-99.99,,2013-07-08 08:02:00,
2013-07-08 04:12:00,73.0,72.0,30.09,ENE,76,1.0,3.0,93,-99.99,,,-99.99,,2013-07-08 08:12:00,
2013-07-08 04:22:00,73.0,72.0,30.09,ENE,76,1.0,3.0,93,-99.99,,,-99.99,,2013-07-08 08:22:00,
2013-07-08 04:33:00,73.0,72.0,30.09,ENE,76,1.0,3.0,93,-99.99,,,-99.99,,2013-07-08 08:33:00,
2013-07-08 04:42:00,74.0,72.0,30.10,NE,48,3.0,4.0,94,-99.99,,,-99.99,,2013-07-08 08:42:00,
2013-07-08 04:53:00,74.0,73.0,30.10,ENE,62,4.0,5.0,94,-99.99,,,-99.99,,2013-07-08 08:53:00,
2013-07-08 05:02:00,74.0,73.0,30.10,ENE,62,4.0,5.0,94,-99.99,,,-99.99,,2013-07-08 09:02:00,
2013-07-08 05:11:00,74.0,72.0,30.10,ENE,69,5.0,7.0,94,-99.99,,,-99.99,,2013-07-08 09:11:00,
2013-07-08 05:22:00,74.0,72.0,30.10,ENE,69,5.0,7.0,94,-99.99,,,-99.99,,2013-07-08 09:22:00,
2013-07-08 05:34:00,74.0,72.0,30.10,ENE,69,5.0,7.0,94,-99.99,,,-99.99,,2013-07-08 09:34:00,
2013-07-08 05:43:00,74.0,72.0,30.10,ENE,76,4.0,6.0,94,-99.99,,,-99.99,,2013-07-08 09:43:00,
2013-07-08 05:53:00,74.0,72.0,30.09,East,81,4.0,7.0,94,-99.99,,,-99.99,,2013-07-08 09:53:00,
2013-07-08 06:02:00,74.0,72.0,30.09,East,81,4.0,7.0,94,-99.99,,,-99.99,,2013-07-08 10:02:00,
2013-07-08 06:11:00,74.0,72.0,30.09,East,90,4.0,6.0,94,-99.99,,,-99.99,,2013-07-08 10:11:00,
2013-07-08 06:22:00,74.0,72.0,30.09,East,90,4.0,6.0,94,-99.99,,,-99.99,,2013-07-08 10:22:00,
2013-07-08 06:34:00,74.0,72.0,30.09,East,90,4.0,6.0,94,-99.99,,,-99.99,,2013-07-08 10:34:00,
2013-07-08 06:43:00,74.0,72.0,30.09,East,86,3.0,6.0,94,-99.99,,,-99.99,,2013-07-08 10:43:00,
2013-07-08 06:53:00,74.0,72.0,30.09,East,96,2.0,3.0,94,-99.99,,,-99.99,,2013-07-08 10:53:00,
2013-07-08 07:02:00,74.0,72.0,30.09,East,96,2.0,3.0,94,-99.99,,,-99.99,,2013-07-08 11:02:00,
2013-07-08 07:11:00,74.0,72.0,30.10,ENE,67,3.0,6.0,94,-99.99,,,-99.99,,2013-07-08 11:11:00,
2013-07-08 07:23:00,74.0,72.0,30.10,ENE,67,3.0,6.0,94,-99.99,,,-99.99,,2013-07-08 11:23:00,
2013-07-08 07:33:00,74.0,72.0,30.10,ENE,67,3.0,6.0,94,-99.99,,,-99.99,,2013-07-08 11:33:00,
2013-07-08 07:43:00,74.0,72.0,30.11,ENE,75,2.0,3.0,94,-99.99,,,-99.99,,2013-07-08 11:43:00,
2013-07-08 07:53:00,74.0,73.0,30.11,ENE,75,3.0,4.0,94,-99.99,,,-99.99,,2013-07-08 11:53:00,
2013-07-08 08:02:00,74.0,73.0,30.11,ENE,75,3.0,4.0,94,-99.99,,,-99.99,,2013-07-08 12:02:00,
2013-07-08 08:12:00,76.0,74.0,30.11,ENE,74,4.0,6.0,92,-99.99,,,-99.99,,2013-07-08 12:12:00,
2013-07-08 08:22:00,76.0,74.0,30.11,ENE,74,4.0,6.0,92,-99.99,,,-99.99,,2013-07-08 12:22:00,
2013-07-08 08:34:00,76.0,74.0,30.11,ENE,74,4.0,6.0,92,-99.99,,,-99.99,,2013-07-08 12:34:00,
2013-07-08 08:43:00,77.0,74.0,30.12,East,80,3.0,6.0,90,-99.99,,,-99.99,,2013-07-08 12:43:00,
2013-07-08 09:00:00,81.0,75.0,30.12,East,94,7.0,12.0,81,-99.99,,,-99.99,,2013-07-08 13:00:00,
2013-07-08 09:02:00,78.0,74.0,30.12,ENE,78,4.0,7.0,89,-99.99,,,-99.99,,2013-07-08 13:02:00,
2013-07-08 09:22:00,80.0,75.0,30.12,East,100,6.0,14.0,84,-99.99,,,-99.99,,2013-07-08 13:22:00,
2013-07-08 09:33:00,80.0,75.0,30.12,East,100,6.0,14.0,84,-99.99,,,-99.99,,2013-07-08 13:33:00,
2013-07-08 09:53:00,81.0,75.0,30.12,East,94,7.0,12.0,81,-99.99,,,-99.99,,2013-07-08 13:53:00,
2013-07-08 10:43:00,82.0,72.0,30.13,East,89,6.0,11.0,71,-99.99,,,-99.99,,2013-07-08 14:43:00,
2013-07-08 10:53:00,82.0,72.0,30.13,East,89,6.0,11.0,71,-99.99,,,-99.99,,2013-07-08 14:53:00,
2013-07-08 11:02:00,82.0,72.0,30.13,East,89,6.0,11.0,71,-99.99,,,-99.99,,2013-07-08 15:02:00,
2013-07-08 11:11:00,82.0,71.0,30.13,East,86,8.0,15.0,68,-99.99,,,-99.99,,2013-07-08 15:11:00,
2013-07-08 11:22:00,83.0,72.0,30.13,ENE,66,6.0,10.0,69,-99.99,,,-99.99,,2013-07-08 15:22:00,
2013-07-08 11:33:00,83.0,72.0,30.13,ENE,66,6.0,10.0,69,-99.99,,,-99.99,,2013-07-08 15:33:00,
2013-07-08 11:43:00,83.0,72.0,30.13,ENE,57,6.0,12.0,68,-99.99,,,-99.99,,2013-07-08 15:43:00,
2013-07-08 11:53:00,83.0,72.0,30.13,ENE,57,6.0,12.0,68,-99.99,,,-99.99,,2013-07-08 15:53:00,
2013-07-08 12:01:00,83.0,72.0,30.13,ENE,57,6.0,12.0,68,-99.99,,,-99.99,,2013-07-08 16:01:00,
2013-07-08 12:11:00,84.0,72.0,30.13,ENE,57,8.0,14.0,67,-99.99,,,-99.99,,2013-07-08 16:11:00,
2013-07-08 12:33:00,84.0,72.0,30.13,ENE,65,8.0,15.0,67,-99.99,,,-99.99,,2013-07-08 16:33:00,
2013-07-08 12:43:00,83.0,71.0,30.13,ENE,68,7.0,12.0,65,-99.99,,,-99.99,,2013-07-08 16:43:00,
2013-07-08 12:45:00,85.0,71.0,30.13,East,83,7.0,11.0,63,-99.99,,,-99.99,,2013-07-08 16:45:00,
2013-07-08 13:14:00,83.0,71.0,30.13,ENE,70,6.0,13.0,64,-99.99,,,-99.99,,2013-07-08 17:14:00,
2013-07-08 13:28:00,85.0,71.0,30.13,East,83,7.0,11.0,63,-99.99,,,-99.99,,2013-07-08 17:28:00,
2013-07-08 14:11:00,87.0,71.0,30.12,East,91,8.0,15.0,59,-99.99,,,-99.99,,2013-07-08 18:11:00,
2013-07-08 14:34:00,86.0,71.0,30.12,East,91,7.0,12.0,60,-99.99,,,-99.99,,2013-07-08 18:34:00,
2013-07-08 14:52:00,87.0,71.0,30.12,East,87,9.0,18.0,58,-99.99,,,-99.99,,2013-07-08 18:52:00,
2013-07-08 15:33:00,88.0,70.0,30.10,East,93,9.0,16.0,54,-99.99,,,-99.99,,2013-07-08 19:33:00,
2013-07-08 15:39:00,88.0,70.0,30.10,East,93,9.0,16.0,54,-99.99,,,-99.99,,2013-07-08 19:39:00,
2013-07-08 16:23:00,88.0,71.0,30.09,ESE,103,8.0,16.0,56,-99.99,,,-99.99,,2013-07-08 20:23:00,
2013-07-08 16:44:00,88.0,71.0,30.09,ESE,103,8.0,16.0,56,-99.99,,,-99.99,,2013-07-08 20:44:00,
2013-07-08 17:09:00,88.0,71.0,30.08,ESE,104,10.0,17.0,56,-99.99,,,-99.99,,2013-07-08 21:09:00,
2013-07-08 17:22:00,88.0,71.0,-100.00,East,101,9.0,17.0,56,-99.99,,,-99.99,,2013-07-08 21:22:00,
2013-07-08 17:43:00,87.0,70.0,30.07,East,95,10.0,16.0,57,-99.99,,,-99.99,,2013-07-08 21:43:00,
2013-07-08 17:53:00,87.0,71.0,30.06,East,91,8.0,17.0,58,-99.99,,,-99.99,,2013-07-08 21:53:00,
2013-07-08 18:10:00,87.0,71.0,30.06,East,91,8.0,17.0,58,-99.99,,,-99.99,,2013-07-08 22:10:00,
2013-07-08 19:09:00,86.0,70.0,30.05,East,99,8.0,15.0,58,-99.99,,,-99.99,,2013-07-08 23:09:00,
2013-07-08 19:16:00,86.0,70.0,30.05,ESE,103,7.0,13.0,58,-99.99,,,-99.99,,2013-07-08 23:16:00,
2013-07-08 19:46:00,84.0,70.0,30.06,East,96,6.0,12.0,61,-99.99,,,-99.99,,2013-07-08 23:46:00,
2013-07-08 19:55:00,84.0,70.0,30.06,ESE,104,7.0,14.0,62,-99.99,,,-99.99,,2013-07-08 23:55:00,
2013-07-08 20:09:00,84.0,70.0,30.06,ESE,104,7.0,14.0,62,-99.99,,,-99.99,,2013-07-09 00:09:00,
2013-07-08 20:16:00,83.0,69.0,30.07,ESE,102,7.0,13.0,62,-99.99,,,-99.99,,2013-07-09 00:16:00,
2013-07-08 20:42:00,82.0,70.0,30.08,East,98,5.0,8.0,67,-99.99,,,-99.99,,2013-07-09 00:42:00,
2013-07-08 21:09:00,81.0,70.0,30.08,East,92,4.0,8.0,69,-99.99,,,-99.99,,2013-07-09 01:09:00,
2013-07-08 21:15:00,80.0,70.0,30.09,East,91,5.0,7.0,70,-99.99,,,-99.99,,2013-07-09 01:15:00,
2013-07-08 21:44:00,79.0,70.0,30.11,ENE,71,3.0,5.0,73,-99.99,,,-99.99,,2013-07-09 01:44:00,
2013-07-08 22:27:00,-999.0,-99.9,30.13,ENE,73,3.0,5.0,77,-99.99,,,-99.99,,2013-07-09 02:27:00,
2013-07-08 22:46:00,77.0,71.0,30.14,ENE,73,4.0,6.0,80,-99.99,,,-99.99,,2013-07-09 02:46:00,
2013-07-08 23:24:00,77.0,71.0,30.15,East,83,3.0,5.0,82,-99.99,,,-99.99,,2013-07-09 03:24:00,
2013-07-08 23:54:00,75.0,71.0,30.16,ENE,77,4.0,6.0,85,-99.99,,,-99.99,,2013-07-09 03:54:00,